Time;durP1;ratioP1;P1;durP2;ratioP2;P2;SDS_P1;SDS_P2;PMS_P1;PMS_P2;Temp;Humidity;BMP_temperature;BMP_pressure;BME280_temperature;BME280_humidity;BME280_pressure;Samples;Min_cycle;Max_cycle;Signal;HPM_P1;HPM_P2
2023/09/14 00:01:36;;;;;;;12.27;8.02;;;21.40;99.90;;;;;;5012675;28;20040;-56
2023/09/14 00:04:40;;;;;;;10.55;7.80;;;21.40;99.90;;;;;;5008551;28;20040;-57
2023/09/14 00:07:44;;;;;;;9.95;8.05;;;21.40;99.90;;;;;;5011634;28;20029;-57
2023/09/14 00:10:55;;;;;;;14.05;8.65;;;21.20;99.90;;;;;;5012601;28;20033;-55
2023/09/14 00:14:00;;;;;;;13.75;7.88;;;21.10;99.90;;;;;;5010536;28;20053;-57
2023/09/14 00:17:06;;;;;;;10.40;7.35;;;21.00;99.90;;;;;;5012502;28;20041;-55
2023/09/14 00:20:17;;;;;;;13.30;7.65;;;21.00;99.90;;;;;;5011480;28;20049;-56
2023/09/14 00:23:21;;;;;;;10.18;7.90;;;21.00;99.90;;;;;;5004995;28;20044;-55
2023/09/14 00:26:25;;;;;;;11.85;8.18;;;21.00;99.90;;;;;;5012236;28;20045;-58
2023/09/14 00:29:29;;;;;;;11.80;8.57;;;20.90;99.90;;;;;;5006599;28;20397;-58
2023/09/14 00:32:38;;;;;;;14.70;8.07;;;20.80;99.90;;;;;;5017430;28;20041;-57
2023/09/14 00:35:46;;;;;;;17.75;8.65;;;20.80;99.90;;;;;;5011221;28;20416;-58
2023/09/14 00:38:50;;;;;;;14.93;7.93;;;20.70;99.90;;;;;;5004941;28;20045;-58
2023/09/14 00:41:54;;;;;;;16.05;8.40;;;20.60;99.90;;;;;;5011520;28;20052;-56
2023/09/14 00:44:58;;;;;;;12.48;8.52;;;20.50;99.90;;;;;;5010463;28;20037;-56
2023/09/14 00:48:02;;;;;;;13.98;9.25;;;20.40;99.90;;;;;;5009051;28;20041;-58
2023/09/14 00:51:07;;;;;;;13.23;8.88;;;20.20;99.90;;;;;;5011747;28;20519;-56
2023/09/14 00:54:11;;;;;;;12.93;8.68;;;20.20;99.90;;;;;;5011008;28;20060;-58
2023/09/14 00:57:17;;;;;;;13.45;9.18;;;20.10;99.90;;;;;;5007767;28;20037;-56
2023/09/14 01:00:21;;;;;;;12.50;9.20;;;20.00;99.90;;;;;;5004779;28;20404;-58
2023/09/14 01:03:25;;;;;;;12.60;9.63;;;20.00;99.90;;;;;;5010949;28;20045;-54
2023/09/14 01:06:32;;;;;;;13.85;9.77;;;20.00;99.90;;;;;;5007114;28;20037;-57
2023/09/14 01:09:36;;;;;;;12.30;9.35;;;20.00;99.90;;;;;;5011422;28;20041;-55
2023/09/14 01:12:40;;;;;;;13.82;9.40;;;19.90;99.90;;;;;;5011239;28;20048;-58
2023/09/14 01:15:52;;;;;;;13.73;9.02;;;19.90;99.90;;;;;;5007382;28;20515;-54
2023/09/14 01:19:35;;;;;;;14.40;9.43;;;19.80;99.90;;;;;;5010953;28;20041;-57
2023/09/14 01:23:01;;;;;;;16.92;9.48;;;19.80;99.90;;;;;;5004043;28;20041;-58
2023/09/14 01:26:07;;;;;;;15.88;10.55;;;19.80;99.90;;;;;;5009430;28;20508;-55
2023/09/14 01:29:11;;;;;;;15.13;9.85;;;19.80;99.90;;;;;;5010242;28;20060;-57
2023/09/14 01:32:15;;;;;;;16.05;10.15;;;19.80;99.90;;;;;;5010529;28;20041;-55
2023/09/14 01:35:20;;;;;;;14.13;9.70;;;19.90;99.90;;;;;;5009936;28;20281;-57
2023/09/14 01:38:26;;;;;;;13.00;9.95;;;19.80;99.90;;;;;;5011355;28;20037;-57
2023/09/14 01:41:32;;;;;;;13.55;10.32;;;19.80;99.90;;;;;;5009486;28;20052;-55
2023/09/14 01:44:38;;;;;;;15.05;10.93;;;19.70;99.90;;;;;;5009756;28;20041;-56
2023/09/14 01:47:42;;;;;;;15.93;10.82;;;19.60;99.90;;;;;;5002768;28;20038;-56
2023/09/14 01:50:47;;;;;;;14.95;10.68;;;19.50;99.90;;;;;;5018037;28;20050;-57
2023/09/14 01:53:52;;;;;;;15.32;11.18;;;19.50;99.90;;;;;;5009496;28;20045;-57
2023/09/14 01:56:55;;;;;;;16.35;11.23;;;19.40;99.90;;;;;;5002850;28;20034;-56
2023/09/14 01:59:59;;;;;;;16.98;10.40;;;19.40;99.90;;;;;;5009953;28;20041;-55
2023/09/14 02:03:04;;;;;;;17.98;11.23;;;19.40;99.90;;;;;;5009353;28;20519;-55
2023/09/14 02:06:08;;;;;;;15.02;11.50;;;19.30;99.90;;;;;;5009479;28;20420;-57
2023/09/14 02:09:11;;;;;;;13.40;10.57;;;19.30;99.90;;;;;;5009825;28;20519;-56
2023/09/14 02:12:16;;;;;;;18.17;12.70;;;19.20;99.90;;;;;;5009331;28;20053;-54
2023/09/14 02:15:19;;;;;;;16.88;11.85;;;19.20;99.90;;;;;;5002220;28;20053;-54
2023/09/14 02:18:23;;;;;;;12.40;10.77;;;19.30;99.90;;;;;;5010563;28;20044;-55
2023/09/14 02:21:27;;;;;;;15.93;12.07;;;19.30;99.90;;;;;;5009608;28;20090;-57
2023/09/14 02:24:31;;;;;;;15.65;11.27;;;19.30;99.90;;;;;;5004522;28;20032;-55
2023/09/14 02:27:35;;;;;;;20.17;11.57;;;19.30;99.90;;;;;;5009705;28;20037;-56
2023/09/14 02:30:40;;;;;;;22.75;11.75;;;19.30;99.90;;;;;;5008162;28;20500;-54
2023/09/14 02:33:44;;;;;;;18.45;11.98;;;19.30;99.90;;;;;;5012999;28;20037;-54
2023/09/14 02:36:48;;;;;;;15.40;11.23;;;19.20;99.90;;;;;;5013420;28;20056;-57
2023/09/14 02:39:52;;;;;;;19.38;11.88;;;19.20;99.90;;;;;;5008433;28;20388;-55
2023/09/14 02:42:56;;;;;;;17.42;13.05;;;19.20;99.90;;;;;;5013810;28;20048;-58
2023/09/14 02:46:00;;;;;;;20.05;13.45;;;19.20;99.90;;;;;;5014117;28;20040;-57
2023/09/14 02:49:04;;;;;;;19.48;13.68;;;19.10;99.90;;;;;;5007902;28;20048;-57
2023/09/14 02:52:08;;;;;;;22.08;13.95;;;19.00;99.90;;;;;;5013802;28;20121;-58
2023/09/14 02:55:12;;;;;;;17.35;13.02;;;19.00;99.90;;;;;;5012443;28;20510;-57
2023/09/14 02:58:16;;;;;;;15.38;11.77;;;19.00;99.90;;;;;;5006256;28;20045;-57
2023/09/14 03:01:20;;;;;;;19.90;12.23;;;18.90;99.90;;;;;;5013716;28;20045;-54
2023/09/14 03:04:24;;;;;;;17.00;11.85;;;18.80;99.90;;;;;;5011413;28;20049;-58
2023/09/14 03:07:28;;;;;;;17.60;12.70;;;18.80;99.90;;;;;;5012676;28;20045;-58
2023/09/14 03:10:33;;;;;;;15.95;12.48;;;18.80;99.90;;;;;;5012712;28;20396;-58
2023/09/14 03:13:37;;;;;;;17.38;12.43;;;18.90;99.90;;;;;;5010629;28;20045;-57
2023/09/14 03:16:41;;;;;;;22.52;13.18;;;18.90;99.90;;;;;;5008893;28;20057;-54
2023/09/14 03:19:45;;;;;;;18.83;12.93;;;18.80;99.90;;;;;;5013484;28;20037;-54
2023/09/14 03:22:49;;;;;;;19.48;12.90;;;18.80;99.90;;;;;;5006535;28;20045;-55
2023/09/14 03:25:53;;;;;;;18.33;11.75;;;18.80;99.90;;;;;;5009397;28;20041;-58
2023/09/14 03:28:57;;;;;;;21.55;13.85;;;18.80;99.90;;;;;;5013116;28;20119;-58
2023/09/14 03:32:01;;;;;;;19.83;14.48;;;18.60;99.90;;;;;;5011589;28;20408;-57
2023/09/14 03:35:06;;;;;;;18.55;13.20;;;18.50;99.90;;;;;;5011712;28;20448;-54
2023/09/14 03:38:10;;;;;;;19.20;13.63;;;18.50;99.90;;;;;;5012126;28;20053;-56
2023/09/14 03:41:14;;;;;;;22.13;16.23;;;18.50;99.90;;;;;;5012994;28;20041;-58
2023/09/14 03:44:18;;;;;;;23.58;15.63;;;18.50;99.90;;;;;;5011637;28;20037;-58
2023/09/14 03:47:23;;;;;;;22.17;15.80;;;18.60;99.90;;;;;;5008166;28;20049;-54
2023/09/14 03:50:27;;;;;;;20.92;15.90;;;18.60;99.90;;;;;;5012177;28;20102;-57
2023/09/14 03:53:31;;;;;;;26.02;16.92;;;18.60;99.90;;;;;;5011252;28;20049;-57
2023/09/14 03:56:35;;;;;;;20.65;15.93;;;18.60;99.90;;;;;;5007428;28;20045;-58
2023/09/14 03:59:41;;;;;;;24.10;17.33;;;18.60;99.90;;;;;;5011725;28;20416;-58
2023/09/14 04:02:46;;;;;;;22.00;16.67;;;18.50;99.90;;;;;;5010716;28;20036;-56
2023/09/14 04:05:49;;;;;;;24.40;18.60;;;18.50;99.90;;;;;;5012541;28;20032;-57
2023/09/14 04:08:53;;;;;;;30.70;20.42;;;18.40;99.90;;;;;;5012355;28;20041;-57
2023/09/14 04:11:57;;;;;;;28.38;19.27;;;18.40;99.90;;;;;;5007198;28;20049;-55
2023/09/14 04:15:02;;;;;;;28.48;20.05;;;18.30;99.90;;;;;;5010989;28;20056;-57
2023/09/14 04:18:06;;;;;;;26.00;19.48;;;18.20;99.90;;;;;;5011309;28;20053;-55
2023/09/14 04:21:10;;;;;;;29.42;19.98;;;18.30;99.90;;;;;;5010816;28;20052;-56
2023/09/14 04:24:14;;;;;;;29.08;19.60;;;18.30;99.90;;;;;;5010841;28;20049;-58
2023/09/14 04:27:18;;;;;;;26.95;19.27;;;18.30;99.90;;;;;;5011421;28;20061;-58
2023/09/14 04:30:22;;;;;;;27.45;19.70;;;18.30;99.90;;;;;;5010697;28;20037;-57
2023/09/14 04:33:26;;;;;;;29.15;20.83;;;18.30;99.90;;;;;;5010648;28;20037;-57
2023/09/14 04:36:30;;;;;;;28.73;19.35;;;18.30;99.90;;;;;;5011140;28;20507;-57
2023/09/14 04:39:34;;;;;;;30.73;19.52;;;18.30;99.90;;;;;;5010778;28;20511;-54
2023/09/14 04:42:39;;;;;;;27.17;17.85;;;18.30;99.90;;;;;;5011064;28;20412;-56
2023/09/14 04:45:46;;;;;;;30.80;19.58;;;18.20;99.90;;;;;;5011651;28;20049;-55
2023/09/14 04:48:50;;;;;;;27.60;18.00;;;18.20;99.90;;;;;;5008365;28;20033;-58
2023/09/14 04:51:53;;;;;;;31.65;18.98;;;18.20;99.90;;;;;;5011408;28;20523;-56
2023/09/14 04:54:58;;;;;;;25.42;18.25;;;18.20;99.90;;;;;;5006913;28;20041;-53
2023/09/14 04:58:03;;;;;;;30.13;18.13;;;18.20;99.90;;;;;;5010549;28;20049;-57
2023/09/14 05:01:07;;;;;;;27.30;17.73;;;18.30;99.90;;;;;;5010772;28;20045;-56
2023/09/14 05:04:11;;;;;;;26.58;18.65;;;18.30;99.90;;;;;;5009520;28;20073;-58
2023/09/14 05:07:15;;;;;;;27.75;17.70;;;18.30;99.90;;;;;;5010445;28;20040;-55
2023/09/14 05:10:19;;;;;;;23.63;16.48;;;18.30;99.90;;;;;;5010571;28;20054;-57
2023/09/14 05:13:24;;;;;;;24.05;17.75;;;18.40;99.90;;;;;;5003193;28;20052;-58
2023/09/14 05:16:28;;;;;;;27.42;19.63;;;18.40;99.90;;;;;;5010410;28;20044;-58
2023/09/14 05:19:32;;;;;;;26.63;19.42;;;18.50;99.90;;;;;;5010612;28;20041;-57
2023/09/14 05:22:37;;;;;;;25.80;18.65;;;18.60;99.90;;;;;;5005758;28;20529;-54
2023/09/14 05:25:42;;;;;;;24.58;16.38;;;18.60;99.90;;;;;;5006478;28;20042;-57
2023/09/14 05:28:46;;;;;;;23.55;18.00;;;18.70;99.90;;;;;;5004862;28;20568;-58
2023/09/14 05:31:50;;;;;;;23.40;18.58;;;18.70;99.90;;;;;;5007470;28;20037;-58
2023/09/14 05:34:54;;;;;;;27.58;19.48;;;18.70;99.90;;;;;;5008314;28;20041;-58
2023/09/14 05:37:58;;;;;;;32.17;18.27;;;18.80;99.90;;;;;;5007505;28;20037;-57
2023/09/14 05:41:03;;;;;;;29.35;17.70;;;18.80;99.90;;;;;;5006325;28;20049;-58
2023/09/14 05:44:09;;;;;;;37.95;17.15;;;18.90;99.90;;;;;;5001428;28;20060;-57
2023/09/14 05:47:14;;;;;;;24.88;17.05;;;18.90;99.90;;;;;;5005024;28;20067;-57
2023/09/14 05:50:18;;;;;;;24.05;16.45;;;19.00;99.90;;;;;;4999958;28;20040;-57
2023/09/14 05:53:22;;;;;;;22.38;15.98;;;19.30;99.90;;;;;;5005530;28;20041;-57
2023/09/14 05:56:26;;;;;;;22.83;16.35;;;19.50;99.90;;;;;;5001204;28;20065;-56
2023/09/14 05:59:30;;;;;;;24.05;15.15;;;19.60;99.90;;;;;;5002897;28;20049;-57
2023/09/14 06:02:34;;;;;;;23.42;14.88;;;20.00;99.90;;;;;;5002724;28;20065;-57
2023/09/14 06:05:39;;;;;;;18.60;13.27;;;20.40;99.90;;;;;;5007378;28;20042;-58
2023/09/14 06:08:43;;;;;;;20.48;14.07;;;20.90;99.90;;;;;;5004483;28;20050;-57
2023/09/14 06:11:48;;;;;;;16.88;11.63;;;21.60;99.90;;;;;;5010213;28;20400;-55
2023/09/14 06:14:52;;;;;;;12.90;10.45;;;21.60;99.90;;;;;;5008789;28;20049;-56
2023/09/14 06:17:56;;;;;;;15.73;11.85;;;21.60;99.90;;;;;;5003300;28;20033;-57
2023/09/14 06:21:00;;;;;;;17.17;11.82;;;21.70;99.90;;;;;;5006181;28;20045;-59
2023/09/14 06:24:04;;;;;;;21.42;12.50;;;22.00;99.90;;;;;;5005571;28;20044;-58
2023/09/14 06:27:08;;;;;;;20.83;10.43;;;22.60;99.90;;;;;;5005790;28;20045;-57
2023/09/14 06:30:12;;;;;;;13.95;9.95;;;24.00;99.90;;;;;;5013270;28;20049;-57
2023/09/14 06:33:16;;;;;;;13.50;9.68;;;24.20;99.90;;;;;;5009120;28;20056;-56
2023/09/14 06:36:20;;;;;;;14.85;8.73;;;24.90;99.90;;;;;;5012281;28;20049;-57
2023/09/14 06:39:24;;;;;;;13.55;9.40;;;25.70;99.90;;;;;;5014093;28;20045;-57
2023/09/14 06:42:28;;;;;;;13.48;8.32;;;26.40;99.90;;;;;;5006534;28;20495;-54
2023/09/14 06:45:33;;;;;;;10.82;7.22;;;27.50;99.90;;;;;;5005944;28;20412;-58
2023/09/14 06:48:38;;;;;;;11.18;8.20;;;28.80;99.90;;;;;;5007133;28;20061;-55
2023/09/14 06:51:41;;;;;;;19.30;8.25;;;28.70;99.90;;;;;;5003943;28;20033;-58
2023/09/14 06:54:47;;;;;;;10.80;7.25;;;28.70;99.90;;;;;;5008655;28;20040;-57
2023/09/14 06:57:50;;;;;;;13.70;6.80;;;29.60;99.90;;;;;;5008676;28;20531;-56
2023/09/14 07:00:56;;;;;;;12.98;6.50;;;30.10;99.90;;;;;;4998312;28;20069;-58
2023/09/14 07:04:00;;;;;;;8.65;6.07;;;30.80;99.90;;;;;;5005655;28;20041;-57
2023/09/14 07:07:04;;;;;;;9.02;5.95;;;30.40;99.90;;;;;;5002954;28;20053;-59
2023/09/14 07:10:08;;;;;;;10.30;5.85;;;32.00;99.90;;;;;;5002948;28;20432;-59
2023/09/14 07:13:14;;;;;;;8.90;5.75;;;32.00;98.10;;;;;;5011657;28;20073;-55
2023/09/14 07:16:18;;;;;;;9.90;5.95;;;31.30;98.90;;;;;;5010005;28;20048;-57
2023/09/14 07:19:26;;;;;;;7.95;5.65;;;32.40;97.60;;;;;;5000412;28;20048;-56
2023/09/14 07:22:30;;;;;;;8.48;5.38;;;33.20;96.20;;;;;;4994328;28;20583;-55
2023/09/14 07:25:34;;;;;;;11.88;4.93;;;33.20;95.70;;;;;;5007937;28;20053;-58
2023/09/14 07:28:38;;;;;;;11.88;5.30;;;34.40;94.80;;;;;;5007672;28;20041;-55
2023/09/14 07:31:42;;;;;;;9.50;5.13;;;32.90;94.80;;;;;;5007984;28;20064;-57
2023/09/14 07:34:46;;;;;;;11.20;5.57;;;33.20;95.00;;;;;;5007203;28;20045;-60
2023/09/14 07:37:51;;;;;;;7.93;5.18;;;32.90;94.70;;;;;;5008637;28;20048;-59
2023/09/14 07:40:55;;;;;;;11.43;5.60;;;32.80;94.90;;;;;;5000620;28;20048;-59
2023/09/14 07:43:59;;;;;;;8.35;5.90;;;32.30;95.20;;;;;;5002013;28;20036;-54
2023/09/14 07:47:05;;;;;;;9.13;5.72;;;32.10;95.10;;;;;;5004127;28;20053;-59
2023/09/14 07:50:09;;;;;;;15.10;6.93;;;31.00;96.40;;;;;;5004740;28;20050;-59
2023/09/14 07:53:13;;;;;;;15.93;7.97;;;29.00;98.50;;;;;;5006376;28;20117;-59
2023/09/14 07:56:17;;;;;;;10.63;7.35;;;28.10;99.90;;;;;;5002328;28;20049;-58
2023/09/14 07:59:21;;;;;;;8.88;7.25;;;28.20;99.90;;;;;;4991717;28;20053;-56
2023/09/14 08:02:27;;;;;;;14.23;8.00;;;28.10;99.90;;;;;;4996235;28;20440;-55
2023/09/14 08:05:31;;;;;;;13.32;7.57;;;27.00;99.90;;;;;;5006560;28;20416;-58
2023/09/14 08:08:35;;;;;;;11.68;8.45;;;26.60;99.90;;;;;;5001561;28;20038;-58
2023/09/14 08:11:41;;;;;;;9.55;6.82;;;27.30;99.90;;;;;;5000544;28;20037;-60
2023/09/14 08:14:45;;;;;;;8.88;6.22;;;30.30;99.90;;;;;;5009031;28;20699;-55
2023/09/14 08:17:49;;;;;;;10.63;6.50;;;31.00;99.90;;;;;;5002637;28;20042;-56
2023/09/14 08:20:53;;;;;;;9.98;5.95;;;33.70;96.80;;;;;;5005776;28;20040;-56
2023/09/14 08:23:57;;;;;;;7.57;5.35;;;34.80;95.00;;;;;;5009659;28;20408;-59
2023/09/14 08:27:01;;;;;;;11.82;5.05;;;35.90;93.50;;;;;;5002257;28;20559;-56
2023/09/14 08:30:09;;;;;;;8.52;5.30;;;36.80;92.40;;;;;;5006192;28;20107;-58
2023/09/14 08:33:13;;;;;;;7.75;5.30;;;36.20;91.60;;;;;;5009503;28;20049;-57
2023/09/14 08:36:17;;;;;;;8.43;5.00;;;34.50;93.10;;;;;;5007814;28;20040;-53
2023/09/14 08:39:21;;;;;;;6.25;4.93;;;34.10;94.00;;;;;;4999274;28;20416;-57
2023/09/14 08:42:27;;;;;;;9.65;5.30;;;34.70;93.50;;;;;;5004265;28;20049;-57
2023/09/14 08:45:31;;;;;;;8.30;5.13;;;36.80;91.50;;;;;;5002475;28;20045;-58
2023/09/14 08:48:39;;;;;;;7.75;5.18;;;39.20;89.00;;;;;;5011572;28;20065;-58
2023/09/14 08:51:45;;;;;;;5.82;4.82;;;37.80;89.40;;;;;;4998361;28;20033;-57
2023/09/14 08:54:50;;;;;;;10.38;4.70;;;36.50;89.00;;;;;;4999783;28;20045;-54
2023/09/14 08:57:55;;;;;;;7.50;4.38;;;35.30;90.50;;;;;;5001994;28;20045;-58
2023/09/14 09:01:01;;;;;;;7.03;4.70;;;37.20;90.10;;;;;;4998781;28;20515;-56
2023/09/14 09:04:05;;;;;;;6.38;3.97;;;39.20;86.30;;;;;;4995763;28;20046;-55
2023/09/14 09:07:09;;;;;;;9.77;4.72;;;39.50;84.90;;;;;;5003838;28;20053;-57
2023/09/14 09:10:27;;;;;;;7.80;4.65;;;36.60;87.60;;;;;;5004614;28;20044;-57
2023/09/14 09:13:35;;;;;;;6.22;4.68;;;36.00;88.10;;;;;;5001174;28;20057;-56
2023/09/14 09:16:39;;;;;;;11.63;4.82;;;34.60;90.30;;;;;;5003325;28;20530;-59
2023/09/14 09:19:47;;;;;;;10.15;4.32;;;34.80;88.50;;;;;;5001866;28;20408;-57
2023/09/14 09:22:54;;;;;;;6.72;4.32;;;36.30;88.50;;;;;;5001673;28;20053;-57
2023/09/14 09:26:01;;;;;;;4.63;4.22;;;38.50;84.30;;;;;;5016269;28;20034;-56
2023/09/14 09:29:16;;;;;;;8.48;4.68;;;38.90;84.20;;;;;;5003938;28;20044;-58
2023/09/14 09:32:21;;;;;;;5.15;4.20;;;37.90;84.90;;;;;;4991105;28;20523;-58
2023/09/14 09:35:29;;;;;;;5.90;4.25;;;34.70;87.40;;;;;;5000791;28;20052;-56
2023/09/14 09:38:37;;;;;;;9.73;4.22;;;35.90;85.20;;;;;;4994203;28;20065;-57
2023/09/14 09:41:45;;;;;;;8.75;4.50;;;36.60;84.90;;;;;;5001722;28;20056;-57
2023/09/14 09:44:54;;;;;;;7.93;3.95;;;36.70;85.50;;;;;;5006372;28;20044;-57
2023/09/14 09:48:01;;;;;;;5.90;4.30;;;36.10;86.10;;;;;;5002180;28;20040;-58
2023/09/14 09:51:04;;;;;;;7.75;4.93;;;36.60;85.30;;;;;;5006285;28;20036;-57
2023/09/14 09:54:08;;;;;;;8.52;4.75;;;34.50;88.50;;;;;;5006504;28;20045;-57
2023/09/14 09:57:14;;;;;;;9.05;4.80;;;34.80;88.10;;;;;;5005616;28;20068;-58
2023/09/14 10:00:20;;;;;;;9.40;4.80;;;35.70;86.90;;;;;;5001859;28;20049;-57
2023/09/14 10:03:25;;;;;;;6.18;2.90;;;35.80;85.90;;;;;;5004372;28;20291;-56
2023/09/14 10:06:29;;;;;;;7.60;3.40;;;36.30;82.50;;;;;;5002856;28;20041;-58
2023/09/14 10:09:34;;;;;;;8.40;2.60;;;37.00;82.30;;;;;;5007951;28;20045;-56
2023/09/14 10:12:39;;;;;;;7.43;3.20;;;38.30;80.10;;;;;;5001405;28;20126;-58
2023/09/14 10:15:44;;;;;;;8.80;3.20;;;41.40;78.20;;;;;;5000766;28;20041;-58
2023/09/14 10:18:52;;;;;;;5.45;3.03;;;42.20;75.40;;;;;;5001235;28;20041;-55
2023/09/14 10:21:58;;;;;;;7.93;3.47;;;41.80;75.10;;;;;;4996817;28;20041;-58
2023/09/14 10:25:05;;;;;;;5.80;3.08;;;42.00;73.10;;;;;;5002988;28;20049;-58
2023/09/14 10:28:11;;;;;;;8.82;3.25;;;40.70;74.40;;;;;;5008050;28;20045;-57
2023/09/14 10:31:17;;;;;;;7.50;3.55;;;39.60;75.50;;;;;;5006653;28;20037;-56
2023/09/14 10:34:21;;;;;;;11.52;3.42;;;40.50;75.00;;;;;;5006650;28;20053;-54
2023/09/14 10:37:28;;;;;;;3.67;2.70;;;41.90;72.90;;;;;;5001741;28;20060;-59
2023/09/14 10:40:36;;;;;;;7.38;3.22;;;44.50;70.30;;;;;;5000055;28;20049;-58
2023/09/14 10:43:41;;;;;;;4.45;2.75;;;39.50;73.50;;;;;;5003749;28;20041;-58
2023/09/14 10:46:46;;;;;;;6.22;2.65;;;40.00;72.20;;;;;;5004539;28;20401;-55
2023/09/14 10:49:52;;;;;;;7.82;3.00;;;41.00;71.30;;;;;;5003753;28;20409;-57
2023/09/14 10:52:56;;;;;;;7.72;3.28;;;38.80;71.60;;;;;;5002139;28;20041;-59
2023/09/14 10:56:02;;;;;;;7.88;3.00;;;40.00;71.00;;;;;;5006180;28;20053;-55
2023/09/14 10:59:09;;;;;;;5.05;2.78;;;41.70;68.40;;;;;;5013690;28;20049;-59
2023/09/14 11:02:36;;;;;;;4.07;2.67;;;41.80;68.30;;;;;;5008319;28;20053;-56
2023/09/14 11:05:47;;;;;;;6.25;3.30;;;40.30;69.10;;;;;;5009716;28;20041;-53
2023/09/14 11:09:00;;;;;;;20.27;4.80;;;36.10;75.60;;;;;;5003445;28;20418;-58
2023/09/14 11:12:20;;;;;;;8.57;4.00;;;35.20;84.60;;;;;;5011467;28;20049;-58
2023/09/14 11:15:34;;;;;;;11.65;4.10;;;34.10;90.00;;;;;;5004997;28;20041;-60
2023/09/14 11:18:44;;;;;;;7.30;4.50;;;32.30;90.90;;;;;;5005621;28;20393;-57
2023/09/14 11:21:48;;;;;;;12.18;6.30;;;29.80;96.40;;;;;;5001783;28;20507;-55
2023/09/14 11:24:52;;;;;;;10.88;6.32;;;28.10;99.90;;;;;;5009642;28;20428;-58
2023/09/14 11:28:00;;;;;;;15.02;6.70;;;26.70;99.90;;;;;;5008813;28;20397;-53
2023/09/14 11:31:04;;;;;;;13.30;6.95;;;26.00;99.90;;;;;;5007528;28;20516;-53
2023/09/14 11:34:14;;;;;;;14.52;7.68;;;25.50;99.90;;;;;;5005397;28;20061;-53
2023/09/14 11:37:19;;;;;;;18.25;8.35;;;25.70;99.90;;;;;;5008709;28;20048;-54
2023/09/14 11:40:32;;;;;;;18.75;8.52;;;25.40;99.90;;;;;;5004608;28;20064;-56
2023/09/14 11:43:38;;;;;;;16.85;8.52;;;24.40;99.90;;;;;;5000347;28;20053;-55
2023/09/14 11:46:44;;;;;;;27.60;9.88;;;24.10;99.90;;;;;;5006150;28;20413;-55
2023/09/14 11:49:49;;;;;;;13.25;8.35;;;24.40;99.90;;;;;;5005662;28;20033;-54
2023/09/14 11:52:54;;;;;;;19.02;8.95;;;24.70;99.90;;;;;;5007261;28;20057;-57
2023/09/14 11:55:58;;;;;;;22.40;9.55;;;24.10;99.90;;;;;;5008424;28;20036;-52
2023/09/14 11:59:03;;;;;;;14.82;8.68;;;24.30;99.90;;;;;;5001556;28;20034;-54
2023/09/14 12:02:08;;;;;;;16.67;10.82;;;24.40;99.90;;;;;;5011845;28;20049;-54
2023/09/14 12:05:11;;;;;;;19.50;9.32;;;24.60;99.90;;;;;;5008059;28;20041;-58
2023/09/14 12:08:17;;;;;;;15.88;9.13;;;24.90;99.90;;;;;;5006387;28;20049;-59
2023/09/14 12:11:24;;;;;;;14.15;8.57;;;24.90;99.90;;;;;;5001830;28;20033;-54
2023/09/14 12:14:39;;;;;;;13.18;7.82;;;24.90;99.90;;;;;;5010366;23;20519;-57
2023/09/14 12:17:49;;;;;;;15.55;7.68;;;25.30;99.90;;;;;;5004733;28;20073;-56
2023/09/14 12:20:54;;;;;;;12.95;7.65;;;25.50;99.90;;;;;;5008534;28;20037;-58
2023/09/14 12:23:59;;;;;;;12.88;7.00;;;25.70;99.90;;;;;;5011511;28;20052;-56
2023/09/14 12:27:02;;;;;;;9.80;5.45;;;26.00;99.90;;;;;;4984383;28;20515;-56
2023/09/14 12:30:09;;;;;;;11.50;6.50;;;26.00;99.90;;;;;;4990046;28;20042;-54
2023/09/14 12:33:15;;;;;;;14.10;7.18;;;26.40;99.90;;;;;;4989310;28;20054;-57
2023/09/14 12:36:19;;;;;;;10.43;5.85;;;26.40;99.90;;;;;;4991858;28;20049;-57
2023/09/14 12:39:23;;;;;;;9.25;5.32;;;29.30;99.90;;;;;;4992591;28;20045;-58
2023/09/14 12:42:27;;;;;;;9.98;4.80;;;29.00;99.90;;;;;;4992514;28;20053;-56
2023/09/14 12:45:34;;;;;;;8.13;3.90;;;30.80;99.90;;;;;;4985225;28;20041;-58
2023/09/14 12:48:41;;;;;;;12.55;5.22;;;32.60;99.90;;;;;;4991832;28;20413;-59
2023/09/14 12:51:49;;;;;;;10.15;4.60;;;33.40;99.90;;;;;;4990009;28;20428;-58
2023/09/14 12:54:54;;;;;;;7.50;5.20;;;31.20;99.90;;;;;;4987698;28;20041;-56
2023/09/14 12:57:58;;;;;;;8.48;5.30;;;29.30;99.90;;;;;;4992309;28;20117;-57
2023/09/14 13:01:06;;;;;;;8.18;5.40;;;28.80;99.90;;;;;;4985889;28;20038;-54
2023/09/14 13:04:10;;;;;;;8.50;4.78;;;28.30;99.90;;;;;;4991006;28;20045;-58
2023/09/14 13:07:15;;;;;;;9.93;5.80;;;27.70;99.90;;;;;;4992163;28;20037;-57
2023/09/14 13:10:26;;;;;;;9.52;5.60;;;27.20;99.90;;;;;;4984634;28;20405;-58
2023/09/14 13:13:33;;;;;;;11.82;6.50;;;26.70;99.90;;;;;;4985573;28;20046;-57
2023/09/14 13:16:52;;;;;;;12.05;5.80;;;26.80;99.90;;;;;;4991691;28;20057;-57
2023/09/14 13:19:58;;;;;;;11.32;5.00;;;27.00;99.90;;;;;;4991421;28;20041;-55
2023/09/14 13:23:06;;;;;;;10.00;4.95;;;27.10;99.90;;;;;;4988483;28;20053;-56
2023/09/14 13:26:09;;;;;;;9.60;5.68;;;27.10;99.90;;;;;;4990938;28;20049;-57
2023/09/14 13:29:17;;;;;;;9.77;6.13;;;26.80;99.90;;;;;;4986973;28;20049;-55
2023/09/14 13:32:21;;;;;;;12.57;5.75;;;27.00;99.90;;;;;;4991149;28;20053;-57
2023/09/14 13:35:26;;;;;;;8.95;4.82;;;27.90;99.90;;;;;;4991015;28;20409;-57
2023/09/14 13:38:30;;;;;;;8.57;4.53;;;29.30;99.90;;;;;;4988430;28;20524;-56
2023/09/14 13:41:34;;;;;;;7.30;3.65;;;29.50;99.90;;;;;;4984421;28;20045;-56
2023/09/14 13:44:38;;;;;;;7.95;3.55;;;30.10;99.90;;;;;;4985145;28;20044;-54
2023/09/14 13:47:43;;;;;;;7.78;3.08;;;31.30;99.90;;;;;;4991566;28;20054;-55
2023/09/14 13:50:47;;;;;;;9.98;3.83;;;31.50;99.90;;;;;;4991235;28;20050;-57
2023/09/14 13:53:51;;;;;;;6.18;3.58;;;31.40;98.80;;;;;;4989343;28;20038;-58
2023/09/14 13:56:55;;;;;;;9.45;4.95;;;31.40;99.90;;;;;;4991371;28;20049;-60
2023/09/14 14:00:07;;;;;;;10.52;4.45;;;31.30;99.90;;;;;;4989319;28;20044;-58
2023/09/14 14:03:14;;;;;;;12.00;4.70;;;31.30;99.90;;;;;;4990251;28;20412;-57
2023/09/14 14:06:18;;;;;;;7.95;4.00;;;30.80;99.90;;;;;;4983966;28;20058;-57
2023/09/14 14:09:22;;;;;;;7.30;3.75;;;30.80;99.90;;;;;;4991112;28;20037;-57
2023/09/14 14:12:26;;;;;;;8.93;3.58;;;31.90;99.90;;;;;;4982857;28;20037;-58
2023/09/14 14:15:31;;;;;;;6.28;3.47;;;32.70;99.90;;;;;;4986547;28;20049;-55
2023/09/14 14:18:35;;;;;;;8.98;3.13;;;32.90;99.90;;;;;;4988095;28;20061;-54
2023/09/14 14:21:40;;;;;;;7.53;2.90;;;32.90;99.90;;;;;;4990883;28;20747;-54
2023/09/14 14:24:43;;;;;;;7.60;3.40;;;31.20;99.90;;;;;;4981662;28;20053;-59
2023/09/14 14:27:47;;;;;;;6.75;2.80;;;31.70;99.90;;;;;;4984864;28;20589;-57
2023/09/14 14:30:51;;;;;;;6.85;2.92;;;32.40;98.50;;;;;;4991868;28;20041;-55
2023/09/14 14:33:56;;;;;;;16.83;3.67;;;32.60;97.50;;;;;;4994471;28;20041;-54
2023/09/14 14:36:59;;;;;;;8.77;3.90;;;31.70;98.90;;;;;;4987846;28;20049;-57
2023/09/14 14:40:04;;;;;;;8.07;2.90;;;31.50;99.90;;;;;;4991999;28;20555;-55
2023/09/14 14:43:09;;;;;;;8.93;4.57;;;30.70;99.90;;;;;;4994101;28;20053;-59
2023/09/14 14:46:14;;;;;;;10.85;4.80;;;29.90;99.90;;;;;;4991921;28;20049;-54
2023/09/14 14:49:18;;;;;;;14.15;4.45;;;29.30;99.90;;;;;;4994174;28;20055;-57
2023/09/14 14:52:22;;;;;;;10.30;4.50;;;29.30;99.90;;;;;;4994018;28;20309;-57
2023/09/14 14:55:26;;;;;;;11.38;4.93;;;28.80;99.90;;;;;;4988288;28;20045;-58
2023/09/14 14:58:30;;;;;;;8.50;4.10;;;28.60;99.90;;;;;;4989880;28;20047;-58
2023/09/14 15:01:34;;;;;;;7.78;3.97;;;28.80;99.90;;;;;;4987494;28;20401;-55
2023/09/14 15:04:38;;;;;;;9.98;4.35;;;28.80;99.90;;;;;;4994157;28;20041;-57
2023/09/14 15:07:42;;;;;;;7.90;4.55;;;28.80;99.90;;;;;;4998548;28;20029;-56
2023/09/14 15:10:46;;;;;;;9.10;4.60;;;28.70;99.90;;;;;;4999808;28;20512;-57
2023/09/14 15:13:52;;;;;;;7.07;3.95;;;28.70;99.90;;;;;;4991771;28;20411;-56
2023/09/14 15:16:56;;;;;;;11.02;4.20;;;29.00;99.90;;;;;;4993753;28;20045;-57
2023/09/14 15:20:00;;;;;;;7.65;3.78;;;29.10;99.90;;;;;;4993782;28;20512;-55
2023/09/14 15:23:04;;;;;;;5.93;4.18;;;29.50;99.90;;;;;;4990676;28;20053;-57
2023/09/14 15:26:08;;;;;;;8.02;4.13;;;29.50;99.90;;;;;;4993624;28;20049;-57
2023/09/14 15:29:12;;;;;;;6.25;4.03;;;29.70;99.90;;;;;;4993451;28;20049;-55
2023/09/14 15:32:16;;;;;;;8.25;4.57;;;28.80;99.90;;;;;;4985224;28;20069;-57
2023/09/14 15:35:22;;;;;;;7.95;4.38;;;28.40;99.90;;;;;;4991750;28;20038;-55
2023/09/14 15:38:27;;;;;;;12.25;5.20;;;28.10;99.90;;;;;;4992510;28;20033;-57
2023/09/14 15:41:31;;;;;;;10.88;5.00;;;28.00;99.90;;;;;;4991297;28;20045;-57
2023/09/14 15:44:36;;;;;;;10.15;5.53;;;27.90;99.90;;;;;;4988505;28;20061;-57
2023/09/14 15:47:42;;;;;;;9.38;4.75;;;28.00;99.90;;;;;;4986796;28;20033;-55
2023/09/14 15:50:46;;;;;;;8.10;4.28;;;28.00;99.90;;;;;;4992089;28;20461;-53
2023/09/14 15:53:50;;;;;;;8.93;4.47;;;28.30;99.90;;;;;;4991355;28;20114;-54